Terminal Aerodrome Forecast
Issued by NWS Blacksburg, VA

Current Version | Previous Version | Graphics & Text | Print | Product List | Glossary On
Versions: 1 2 3 4 5 6 7 8 9 10 11 12 13 14 15 16 17 18 19
000
FTUS41 KRNK 251846 AAA
TAFBLF
TAF AMD
KBLF 251846Z 2519/2618 16008KT P6SM VCTS BKN045CB
      TEMPO 2519/2522 4SM -SHRA OVC030
     FM260400 VRB03KT P6SM BKN025
     FM261300 VRB04KT P6SM BKN060
     FM261500 VRB04KT P6SM VCSH OVC040=

USA.gov is the U.S. government's official web portal to all federal, state and local government web resources and services.